Time;durP1;ratioP1;P1;durP2;ratioP2;P2;SDS_P1;SDS_P2;PMS_P1;PMS_P2;Temp;Humidity;BMP_temperature;BMP_pressure;BME280_temperature;BME280_humidity;BME280_pressure;Samples;Min_cycle;Max_cycle;Signal;HPM_P1;HPM_P2
2023/02/15 00:00:10;;;;;;;86.25;52.15;;;153.60;2252.80;;;;;;4983895;28;20018;-85
2023/02/15 00:02:36;;;;;;;114.15;72.15;;;128.20;2252.80;;;;;;4983434;28;20031;-82
2023/02/15 00:05:02;;;;;;;104.18;57.85;;;128.10;2252.80;;;;;;4983928;28;20017;-82
2023/02/15 00:07:28;;;;;;;66.18;39.10;;;103.30;2227.20;;;;;;4983892;28;20011;-84
2023/02/15 00:09:54;;;;;;;53.88;32.85;;;103.30;2227.20;;;;;;4983797;28;20025;-82
2023/02/15 00:12:22;;;;;;;62.65;36.42;;;103.30;2227.20;;;;;;4981563;28;20031;-81
2023/02/15 00:14:48;;;;;;;47.17;28.23;;;128.00;2252.80;;;;;;4982190;28;20123;-83
2023/02/15 00:17:14;;;;;;;76.60;44.50;;;128.00;2252.80;;;;;;4983512;28;20033;-84
2023/02/15 00:19:40;;;;;;;63.40;36.38;;;128.00;2252.80;;;;;;4983458;28;20011;-84
2023/02/15 00:22:06;;;;;;;49.30;29.80;;;128.00;2252.80;;;;;;4983285;28;20014;-83
2023/02/15 00:24:32;;;;;;;51.50;31.05;;;128.00;2252.80;;;;;;4983339;28;20065;-83
2023/02/15 00:26:58;;;;;;;60.28;39.35;;;128.50;2252.80;;;;;;4980884;28;20027;-83
2023/02/15 00:29:25;;;;;;;80.25;49.83;;;103.30;2227.20;;;;;;4979329;28;20034;-83
2023/02/15 00:31:51;;;;;;;121.47;73.40;;;103.00;2227.20;;;;;;4981333;28;20019;-84
2023/02/15 00:34:26;;;;;;;108.28;67.72;;;103.10;2227.20;;;;;;4981837;28;20029;-82
2023/02/15 00:36:52;;;;;;;121.13;72.40;;;103.10;2227.20;;;;;;4980448;28;20042;-82
2023/02/15 00:39:18;;;;;;;116.00;70.32;;;103.10;2227.20;;;;;;4980471;28;20021;-82
2023/02/15 00:41:45;;;;;;;114.95;67.13;;;102.90;2227.20;;;;;;4981812;28;20046;-85
2023/02/15 00:44:11;;;;;;;108.25;63.17;;;103.00;2227.20;;;;;;4981878;28;20085;-81
2023/02/15 00:46:41;;;;;;;103.70;60.72;;;102.50;2227.20;;;;;;4970661;28;20034;-80
2023/02/15 00:49:08;;;;;;;68.63;42.63;;;102.40;2227.20;;;;;;4965946;28;20039;-81
2023/02/15 00:51:36;;;;;;;47.40;29.60;;;103.00;2227.20;;;;;;4991291;28;20041;-80
2023/02/15 00:54:05;;;;;;;34.90;21.45;;;103.10;2227.20;;;;;;4972241;28;20031;-81
2023/02/15 00:56:31;;;;;;;33.53;21.45;;;102.60;2227.20;;;;;;4970413;28;20026;-81
2023/02/15 00:58:57;;;;;;;41.53;24.60;;;103.20;2227.20;;;;;;4967266;28;20050;-81
2023/02/15 01:01:23;;;;;;;54.70;31.52;;;103.30;2227.20;;;;;;4973376;28;20034;-81
2023/02/15 01:03:50;;;;;;;97.65;47.78;;;128.00;2252.80;;;;;;4976157;28;20081;-81
2023/02/15 01:06:17;;;;;;;82.85;43.90;;;103.20;2227.20;;;;;;4975114;28;20042;-80
2023/02/15 01:08:45;;;;;;;94.88;56.85;;;128.40;2252.80;;;;;;4976341;28;20045;-81
2023/02/15 01:11:21;;;;;;;86.40;50.50;;;103.20;2227.20;;;;;;4974171;28;20085;-79
2023/02/15 01:13:50;;;;;;;90.45;53.03;;;103.20;2227.20;;;;;;4971065;28;20022;-79
2023/02/15 01:16:16;;;;;;;86.68;50.88;;;103.20;2227.20;;;;;;4974768;28;20026;-81
2023/02/15 01:18:42;;;;;;;105.45;55.42;;;102.70;2227.20;;;;;;4975864;28;20046;-81
2023/02/15 01:21:13;;;;;;;105.20;57.40;;;103.20;2227.20;;;;;;4975698;28;20024;-81
2023/02/15 01:23:40;;;;;;;119.65;60.67;;;103.10;2227.20;;;;;;4975535;28;20043;-81
2023/02/15 01:26:06;;;;;;;155.85;78.78;;;103.20;2227.20;;;;;;4974639;28;20382;-81
2023/02/15 01:28:32;;;;;;;98.97;52.20;;;103.10;2227.20;;;;;;4974594;28;20030;-81
2023/02/15 01:30:59;;;;;;;82.22;42.42;;;103.10;2227.20;;;;;;4974646;28;20077;-81
2023/02/15 01:33:25;;;;;;;49.83;28.90;;;103.20;2227.20;;;;;;4973846;28;20118;-81
2023/02/15 01:35:58;;;;;;;48.00;25.83;;;103.20;2227.20;;;;;;4974522;28;20027;-80
2023/02/15 01:38:24;;;;;;;35.67;22.85;;;103.00;2227.20;;;;;;4973883;28;20019;-81
2023/02/15 01:41:19;;;;;;;38.00;25.25;;;103.30;2227.20;;;;;;4974943;28;20038;-81
2023/02/15 01:43:45;;;;;;;44.35;25.33;;;103.30;2227.20;;;;;;4992029;28;20027;-80
2023/02/15 01:46:14;;;;;;;37.35;23.55;;;103.30;2227.20;;;;;;4973585;28;20042;-81
2023/02/15 01:48:48;;;;;;;49.83;32.58;;;103.30;2227.20;;;;;;4974906;28;20023;-81
2023/02/15 01:51:19;;;;;;;60.97;40.75;;;103.30;2227.20;;;;;;4991261;28;20034;-81
2023/02/15 01:54:01;;;;;;;51.28;32.58;;;103.30;2227.20;;;;;;4974703;28;20033;-81
2023/02/15 01:56:32;;;;;;;45.70;26.67;;;103.20;2227.20;;;;;;4973719;28;20037;-80
2023/02/15 01:59:14;;;;;;;53.33;29.48;;;103.30;2227.20;;;;;;4974148;28;20748;-81
2023/02/15 02:01:40;;;;;;;38.45;23.13;;;103.30;2227.20;;;;;;4954162;29;20035;-81
2023/02/15 02:04:18;;;;;;;37.63;22.88;;;103.30;2227.20;;;;;;4955481;29;20134;-81
2023/02/15 02:06:48;;;;;;;41.40;25.33;;;128.10;2252.80;;;;;;4955883;29;20016;-81
2023/02/15 02:09:14;;;;;;;35.25;20.60;;;128.10;2252.80;;;;;;4956204;29;20055;-82
2023/02/15 02:11:41;;;;;;;29.65;19.25;;;103.10;2227.20;;;;;;4955749;29;20083;-80
2023/02/15 02:14:07;;;;;;;30.63;19.92;;;102.60;2227.20;;;;;;4955817;29;20031;-81
2023/02/15 02:16:58;;;;;;;32.38;19.95;;;128.40;2252.80;;;;;;4954965;29;20082;-81
2023/02/15 02:19:55;;;;;;;37.75;22.45;;;128.20;2252.80;;;;;;4956136;29;20031;-81
2023/02/15 02:22:40;;;;;;;29.98;18.50;;;128.30;2252.80;;;;;;4956134;29;20388;-81
2023/02/15 02:25:35;;;;;;;28.17;18.13;;;128.20;2252.80;;;;;;4954754;29;20043;-81
2023/02/15 02:28:39;;;;;;;30.95;18.77;;;128.20;2252.80;;;;;;4934126;29;20035;-81
2023/02/15 02:31:17;;;;;;;;;;;128.30;2252.80;;;;;;4971390;28;20027;-81
2023/02/15 02:34:01;;;;;;;43.70;21.98;;;128.30;2252.80;;;;;;4974951;28;19906;-82
2023/02/15 02:36:46;;;;;;;39.47;22.13;;;128.60;2252.80;;;;;;4978658;28;20452;-81
2023/02/15 02:39:32;;;;;;;38.17;22.58;;;128.30;2252.80;;;;;;4975279;28;20027;-81
2023/02/15 02:42:34;;;;;;;36.92;22.25;;;128.30;2252.80;;;;;;4991525;28;20150;-81
2023/02/15 02:45:06;;;;;;;39.70;21.63;;;128.40;2252.80;;;;;;4970983;28;20035;-79
2023/02/15 02:47:47;;;;;;;32.10;20.10;;;128.40;2252.80;;;;;;4974532;28;20030;-82
2023/02/15 02:50:22;;;;;;;39.88;24.55;;;128.40;2252.80;;;;;;4991740;28;20027;-82
2023/02/15 02:52:53;;;;;;;43.97;27.45;;;128.40;2252.80;;;;;;4974626;28;20027;-81
2023/02/15 02:56:00;;;;;;;40.90;24.02;;;128.40;2252.80;;;;;;4974136;28;20034;-81
2023/02/15 02:58:47;;;;;;;43.95;24.30;;;128.40;2252.80;;;;;;4897740;29;20024;-81
2023/02/15 03:01:29;;;;;;;31.33;20.90;;;128.40;2252.80;;;;;;4969986;28;20030;-82
2023/02/15 03:04:03;;;;;;;29.67;18.35;;;128.40;2252.80;;;;;;4974378;28;20050;-82
2023/02/15 03:07:01;;;;;;;25.55;15.98;;;128.40;2252.80;;;;;;4975202;28;20094;-81
2023/02/15 03:09:47;;;;;;;27.30;17.80;;;128.40;2252.80;;;;;;4971141;28;20042;-81
2023/02/15 03:12:23;;;;;;;25.55;17.35;;;128.50;2252.80;;;;;;4975116;28;20031;-81
2023/02/15 03:14:53;;;;;;;27.70;17.70;;;128.50;2252.80;;;;;;4974728;28;20019;-81
2023/02/15 03:17:26;;;;;;;24.40;16.65;;;128.50;2252.80;;;;;;4974040;28;20057;-82
2023/02/15 03:19:57;;;;;;;33.20;19.30;;;128.50;2252.80;;;;;;4958463;28;20058;-81
2023/02/15 03:22:52;;;;;;;33.17;19.73;;;128.50;2252.80;;;;;;4973086;28;20047;-81
2023/02/15 03:25:43;;;;;;;28.27;18.33;;;128.50;2252.80;;;;;;4951756;29;20119;-81
2023/02/15 03:28:25;;;;;;;34.10;21.42;;;128.50;2252.80;;;;;;4953621;29;20033;-80
2023/02/15 03:30:56;;;;;;;33.10;18.98;;;128.50;2252.80;;;;;;4958408;29;20051;-81
2023/02/15 03:33:23;;;;;;;36.55;21.38;;;128.50;2252.80;;;;;;4953126;29;20023;-81
2023/02/15 03:35:59;;;;;;;30.38;19.75;;;128.50;2252.80;;;;;;4970759;28;20034;-80
2023/02/15 03:38:36;;;;;;;31.23;21.75;;;128.50;2252.80;;;;;;4955463;29;20051;-82
2023/02/15 03:41:10;;;;;;;32.50;20.83;;;128.50;2252.80;;;;;;4955615;29;20031;-81
2023/02/15 03:43:59;;;;;;;31.08;20.30;;;128.40;2252.80;;;;;;4971379;29;20082;-81
2023/02/15 03:46:39;;;;;;;38.60;22.85;;;128.50;2252.80;;;;;;4953734;29;20027;-81
2023/02/15 03:49:31;;;;;;;31.88;19.60;;;128.50;2252.80;;;;;;4954018;29;20086;-81
2023/02/15 03:52:00;;;;;;;32.15;19.38;;;128.50;2252.80;;;;;;4953436;29;20082;-81
2023/02/15 03:54:47;;;;;;;28.02;18.90;;;128.40;2252.80;;;;;;4969547;29;20047;-81
2023/02/15 04:03:23;;;;;;;34.22;20.55;;;128.40;2252.80;;;;;;4979035;29;20015;-82
2023/02/15 04:05:49;;;;;;;38.05;24.15;;;128.40;2252.80;;;;;;4957209;29;20088;-81
2023/02/15 04:08:16;;;;;;;38.58;23.13;;;128.40;2252.80;;;;;;4955279;29;20058;-81
2023/02/15 04:10:55;;;;;;;31.30;18.13;;;128.40;2252.80;;;;;;4953252;29;20070;-79
2023/02/15 04:13:29;;;;;;;29.75;17.75;;;128.40;2252.80;;;;;;4969964;29;20101;-81
2023/02/15 04:16:05;;;;;;;29.27;17.88;;;128.50;2252.80;;;;;;4953737;29;20090;-81
2023/02/15 04:26:53;;;;;;;29.55;17.77;;;128.40;2252.80;;;;;;4987832;28;20054;-81
2023/02/15 04:29:24;;;;;;;30.23;19.10;;;128.40;2252.80;;;;;;4971661;28;20033;-80
2023/02/15 04:31:51;;;;;;;37.28;22.60;;;128.50;2252.80;;;;;;4970765;28;20029;-80
2023/02/15 04:34:17;;;;;;;28.38;18.65;;;128.50;2252.80;;;;;;4971789;28;20031;-81
2023/02/15 04:36:43;;;;;;;29.67;18.15;;;128.50;2252.80;;;;;;4970906;28;20046;-81
2023/02/15 04:39:12;;;;;;;31.95;19.63;;;128.60;2252.80;;;;;;4971355;28;20054;-80
2023/02/15 04:41:38;;;;;;;33.58;20.15;;;128.50;2252.80;;;;;;4970634;28;20023;-80
2023/02/15 04:44:04;;;;;;;30.20;17.77;;;128.50;2252.80;;;;;;4971889;28;20047;-80
2023/02/15 04:46:30;;;;;;;23.58;15.95;;;128.50;2252.80;;;;;;4971259;28;20030;-81
2023/02/15 04:48:56;;;;;;;26.42;16.67;;;128.50;2252.80;;;;;;4972153;28;20056;-80
2023/02/15 04:51:22;;;;;;;23.45;15.90;;;128.50;2252.80;;;;;;4971383;28;20035;-81
2023/02/15 04:53:48;;;;;;;27.92;17.63;;;128.00;2252.80;;;;;;4977721;28;20034;-80
2023/02/15 04:56:15;;;;;;;33.42;18.80;;;128.60;2252.80;;;;;;4970629;28;20031;-82
2023/02/15 04:58:41;;;;;;;27.10;16.10;;;128.60;2252.80;;;;;;4971354;28;20018;-81
2023/02/15 05:01:10;;;;;;;32.47;17.80;;;128.50;2252.80;;;;;;4971732;28;20041;-81
2023/02/15 05:03:37;;;;;;;27.83;17.48;;;128.50;2252.80;;;;;;4971765;28;20027;-81
2023/02/15 05:06:03;;;;;;;23.88;16.25;;;128.50;2252.80;;;;;;4971373;28;20031;-81
2023/02/15 05:08:30;;;;;;;26.73;16.45;;;103.20;2227.20;;;;;;4971617;28;20055;-81
2023/02/15 05:10:57;;;;;;;30.00;17.98;;;103.10;2227.20;;;;;;4970719;28;20033;-81
2023/02/15 05:13:23;;;;;;;29.08;17.50;;;128.60;2252.80;;;;;;4971542;28;20034;-80
2023/02/15 05:15:53;;;;;;;27.65;16.60;;;103.10;2227.20;;;;;;4971367;28;20031;-81
2023/02/15 05:18:20;;;;;;;24.95;14.88;;;128.50;2252.80;;;;;;4970581;28;20058;-80
2023/02/15 05:20:46;;;;;;;30.65;20.13;;;128.60;2252.80;;;;;;4955459;28;20038;-80
2023/02/15 05:23:13;;;;;;;30.45;20.33;;;153.70;2252.80;;;;;;4971673;28;20051;-80
2023/02/15 05:28:26;;;;;;;43.95;26.38;;;128.60;2252.80;;;;;;4987825;28;20077;-80
2023/02/15 05:31:05;;;;;;;32.85;20.15;;;128.60;2252.80;;;;;;4955883;29;20034;-80
2023/02/15 05:33:31;;;;;;;34.50;21.20;;;128.50;2252.80;;;;;;4951206;29;20098;-80
2023/02/15 05:35:57;;;;;;;33.47;19.40;;;128.70;2252.80;;;;;;4951289;29;20070;-81
2023/02/15 05:38:23;;;;;;;29.15;19.27;;;103.00;2227.20;;;;;;4952045;29;20419;-81
2023/02/15 05:40:51;;;;;;;30.55;18.88;;;128.50;2252.80;;;;;;4952164;29;20091;-81
2023/02/15 05:43:17;;;;;;;22.60;15.70;;;128.50;2252.80;;;;;;4951786;29;20464;-81
2023/02/15 05:45:50;;;;;;;36.88;22.67;;;128.60;2252.80;;;;;;4951999;29;20031;-82
2023/02/15 05:48:17;;;;;;;30.70;19.30;;;128.50;2252.80;;;;;;4951865;29;20038;-81
2023/02/15 05:50:43;;;;;;;28.58;17.77;;;128.60;2252.80;;;;;;4951280;29;20027;-80
2023/02/15 05:53:10;;;;;;;31.30;20.65;;;128.50;2252.80;;;;;;4965106;28;20033;-80
2023/02/15 05:55:40;;;;;;;40.25;23.48;;;128.60;2252.80;;;;;;4971589;28;20038;-81
2023/02/15 05:58:07;;;;;;;29.58;19.67;;;128.50;2252.80;;;;;;4970682;28;20122;-82
2023/02/15 06:00:34;;;;;;;31.38;20.63;;;128.60;2252.80;;;;;;4973874;28;20037;-80
2023/02/15 06:03:00;;;;;;;34.60;23.48;;;128.50;2252.80;;;;;;4974158;28;20096;-81
2023/02/15 06:05:26;;;;;;;49.65;30.90;;;128.50;2252.80;;;;;;4974642;28;20039;-81
2023/02/15 06:07:52;;;;;;;39.42;23.23;;;128.60;2252.80;;;;;;4974827;28;20041;-80
2023/02/15 06:10:18;;;;;;;40.22;24.55;;;128.60;2252.80;;;;;;4974234;28;20038;-80
2023/02/15 06:12:44;;;;;;;42.75;24.48;;;128.40;2252.80;;;;;;4975076;28;20459;-81
2023/02/15 06:15:11;;;;;;;41.80;24.98;;;128.70;2252.80;;;;;;4974828;28;20031;-79
2023/02/15 06:17:38;;;;;;;48.95;30.90;;;128.60;2252.80;;;;;;4974698;28;20026;-81
2023/02/15 06:20:04;;;;;;;50.92;33.92;;;128.60;2252.80;;;;;;4973972;28;20027;-81
2023/02/15 06:22:30;;;;;;;72.22;45.00;;;128.50;2252.80;;;;;;4974476;28;20125;-80
2023/02/15 06:24:57;;;;;;;62.78;39.22;;;128.70;2252.80;;;;;;4973928;28;20047;-81
2023/02/15 06:27:24;;;;;;;66.63;40.90;;;153.60;2252.80;;;;;;4974387;28;20023;-81
2023/02/15 06:29:50;;;;;;;69.65;41.83;;;153.60;2252.80;;;;;;4974654;28;20121;-81
2023/02/15 06:32:16;;;;;;;68.60;42.38;;;128.60;2252.80;;;;;;4974290;28;20030;-81
2023/02/15 06:34:43;;;;;;;60.95;40.15;;;128.70;2252.80;;;;;;4974302;28;20049;-81
2023/02/15 06:37:09;;;;;;;50.22;32.30;;;128.50;2252.80;;;;;;4959753;28;20031;-81
2023/02/15 06:39:36;;;;;;;69.30;43.83;;;128.70;2252.80;;;;;;4974771;28;20018;-81
2023/02/15 06:42:02;;;;;;;75.80;46.03;;;128.90;2252.80;;;;;;4974794;28;20026;-81
2023/02/15 06:44:29;;;;;;;47.67;30.27;;;128.80;2252.80;;;;;;4991660;28;20034;-81
2023/02/15 06:46:56;;;;;;;60.88;37.78;;;128.70;2252.80;;;;;;4974759;28;20042;-81
2023/02/15 06:49:23;;;;;;;58.13;34.67;;;128.80;2252.80;;;;;;4974162;28;20055;-81
2023/02/15 06:51:49;;;;;;;69.95;39.58;;;153.60;2252.80;;;;;;4973746;28;20034;-81
2023/02/15 06:54:15;;;;;;;56.95;35.08;;;128.90;2252.80;;;;;;4973430;28;20030;-80
2023/02/15 06:56:43;;;;;;;62.60;35.30;;;128.90;2252.80;;;;;;4973929;28;20027;-81
2023/02/15 06:59:09;;;;;;;75.80;41.97;;;128.90;2252.80;;;;;;4973305;28;20023;-81
2023/02/15 07:01:42;;;;;;;70.38;39.20;;;;;;;;;;4990916;28;20030;-81
2023/02/15 07:04:08;;;;;;;80.35;42.13;;;153.70;2252.80;;;;;;4958580;28;20050;-81
2023/02/15 07:06:36;;;;;;;79.90;43.80;;;153.60;2252.80;;;;;;4974246;28;20103;-82
2023/02/15 07:09:06;;;;;;;47.20;28.83;;;153.70;2252.80;;;;;;4973949;28;20031;-81
2023/02/15 07:14:17;;;;;;;46.28;28.42;;;153.80;2252.80;;;;;;4992226;28;20094;-82
2023/02/15 07:16:43;;;;;;;47.58;30.52;;;153.80;2252.80;;;;;;4958191;28;20054;-81
2023/02/15 07:19:09;;;;;;;51.17;31.23;;;153.80;2252.80;;;;;;4973251;28;20019;-81
2023/02/15 07:21:36;;;;;;;46.58;30.13;;;154.00;2252.80;;;;;;4974082;28;20057;-81
2023/02/15 07:24:02;;;;;;;50.20;31.80;;;154.10;2252.80;;;;;;4973668;28;20108;-81
2023/02/15 07:26:28;;;;;;;56.33;33.95;;;154.00;2252.80;;;;;;4957815;28;20399;-81
2023/02/15 07:28:58;;;;;;;60.20;35.15;;;154.00;2252.80;;;;;;4973583;28;20035;-82
2023/02/15 07:31:24;;;;;;;75.03;44.40;;;154.10;2252.80;;;;;;4956717;28;20049;-81
2023/02/15 07:33:51;;;;;;;60.83;37.10;;;154.10;2252.80;;;;;;4957813;28;20035;-81
2023/02/15 07:36:17;;;;;;;52.63;35.05;;;179.30;2252.80;;;;;;4973302;28;20022;-81
2023/02/15 07:38:45;;;;;;;55.95;33.53;;;128.90;2252.80;;;;;;4972481;28;20031;-81
2023/02/15 07:41:14;;;;;;;43.25;28.55;;;154.20;2252.80;;;;;;4973779;28;20023;-81
2023/02/15 07:43:43;;;;;;;46.88;28.15;;;154.20;2252.80;;;;;;4972335;28;20094;-81
2023/02/15 07:46:13;;;;;;;40.03;27.33;;;154.20;2252.80;;;;;;4972370;28;20034;-80
2023/02/15 07:48:40;;;;;;;56.75;36.90;;;154.30;2252.80;;;;;;4971815;28;20037;-81
2023/02/15 07:51:07;;;;;;;50.00;34.42;;;179.40;2252.80;;;;;;4971514;28;20030;-80
2023/02/15 07:53:33;;;;;;;40.90;26.52;;;154.40;2252.80;;;;;;4971964;28;20065;-80
2023/02/15 07:56:02;;;;;;;38.70;25.70;;;179.80;2252.80;;;;;;4971395;28;20034;-80
2023/02/15 08:01:14;;;;;;;52.13;29.63;;;154.40;2252.80;;;;;;4990178;28;20050;-81
2023/02/15 08:03:41;;;;;;;51.33;28.90;;;154.50;2252.80;;;;;;4971171;28;20023;-80
2023/02/15 08:06:09;;;;;;;42.13;27.00;;;179.20;2252.80;;;;;;4955905;28;20031;-80
2023/02/15 08:08:35;;;;;;;49.45;31.80;;;179.20;2252.80;;;;;;4972272;28;20037;-81
2023/02/15 08:13:54;;;;;;;49.13;26.92;;;179.30;2252.80;;;;;;4989907;28;20038;-80
2023/02/15 08:16:34;;;;;;;42.05;26.63;;;179.30;2252.80;;;;;;4956664;28;20042;-81
2023/02/15 08:19:04;;;;;;;46.80;27.20;;;179.30;2252.80;;;;;;4957753;28;20059;-81
2023/02/15 08:21:35;;;;;;;46.28;28.02;;;179.30;2252.80;;;;;;4958408;28;20030;-81
2023/02/15 08:24:01;;;;;;;50.75;32.80;;;179.40;2252.80;;;;;;4979108;28;20023;-84
2023/02/15 08:26:28;;;;;;;50.00;31.65;;;179.40;2252.80;;;;;;4981376;28;20062;-82
2023/02/15 08:28:55;;;;;;;38.10;25.58;;;179.40;2252.80;;;;;;4982427;28;20027;-83
2023/02/15 08:31:21;;;;;;;49.33;35.10;;;179.50;2252.80;;;;;;4977661;28;20045;-81
2023/02/15 08:33:50;;;;;;;61.13;36.95;;;154.20;2252.80;;;;;;4974431;28;20058;-80
2023/02/15 08:36:18;;;;;;;49.38;32.00;;;179.60;2252.80;;;;;;4972920;28;20038;-81
2023/02/15 08:38:44;;;;;;;38.88;28.02;;;179.70;2252.80;;;;;;4971459;28;20023;-81
2023/02/15 08:41:22;;;;;;;30.20;20.58;;;179.80;2252.80;;;;;;4972447;28;20034;-80
2023/02/15 08:43:51;;;;;;;39.45;27.15;;;179.80;2252.80;;;;;;4970859;28;20386;-81
2023/02/15 08:46:18;;;;;;;37.97;25.52;;;179.80;2252.80;;;;;;4971317;28;20029;-80
2023/02/15 08:48:44;;;;;;;38.03;27.48;;;180.10;2252.80;;;;;;4971528;28;20033;-81
2023/02/15 08:51:16;;;;;;;39.60;27.98;;;179.90;2252.80;;;;;;4971141;28;20031;-80
2023/02/15 08:53:44;;;;;;;39.92;26.55;;;180.00;2252.80;;;;;;4966982;28;20058;-79
2023/02/15 08:56:11;;;;;;;62.47;43.53;;;180.00;2252.80;;;;;;4969568;28;20549;-81
2023/02/15 08:58:37;;;;;;;43.00;30.98;;;180.00;2252.80;;;;;;4971405;28;20027;-81
2023/02/15 09:01:20;;;;;;;46.33;30.35;;;179.70;2252.80;;;;;;4960373;29;20034;-80
2023/02/15 09:03:48;;;;;;;45.22;24.50;;;180.00;2252.80;;;;;;4951622;29;20023;-80
2023/02/15 09:06:17;;;;;;;33.15;21.40;;;180.00;2252.80;;;;;;4951078;29;20035;-79
2023/02/15 09:08:43;;;;;;;36.13;22.58;;;179.50;2252.80;;;;;;4950205;29;20054;-80
2023/02/15 09:11:24;;;;;;;30.98;21.60;;;180.10;2252.80;;;;;;4950826;29;20023;-80
2023/02/15 09:13:56;;;;;;;25.75;18.90;;;180.10;2252.80;;;;;;4953963;29;20030;-80
2023/02/15 09:16:23;;;;;;;28.20;19.17;;;204.80;2252.80;;;;;;4952438;29;20038;-81
2023/02/15 09:18:50;;;;;;;29.42;20.70;;;204.80;2252.80;;;;;;4952233;29;20020;-81
2023/02/15 09:21:22;;;;;;;24.83;18.00;;;204.90;2252.80;;;;;;4952700;29;20027;-81
2023/02/15 09:23:50;;;;;;;34.33;26.00;;;204.90;2252.80;;;;;;4957749;29;20050;-83
2023/02/15 09:26:19;;;;;;;33.22;23.38;;;205.10;2252.80;;;;;;4951525;29;20269;-81
2023/02/15 09:28:45;;;;;;;29.15;21.05;;;205.10;2252.80;;;;;;4951726;29;20047;-81
2023/02/15 09:31:17;;;;;;;23.10;15.50;;;205.40;2252.80;;;;;;4952028;29;20038;-81
2023/02/15 09:33:45;;;;;;;25.75;18.23;;;205.20;2252.80;;;;;;4951862;28;20035;-80
2023/02/15 09:36:19;;;;;;;29.50;21.85;;;205.20;2252.80;;;;;;4955051;29;20512;-82
2023/02/15 09:38:46;;;;;;;34.33;20.40;;;205.20;2252.80;;;;;;4955319;29;20031;-80
2023/02/15 09:41:18;;;;;;;29.17;17.95;;;205.20;2252.80;;;;;;4955269;29;20027;-82
2023/02/15 09:44:02;;;;;;;23.88;16.52;;;205.10;2252.80;;;;;;4955008;29;20090;-80
2023/02/15 09:46:42;;;;;;;27.05;20.38;;;205.20;2252.80;;;;;;4958960;29;20043;-82
2023/02/15 09:49:24;;;;;;;36.17;27.60;;;205.20;2252.80;;;;;;4965324;29;20058;-81
2023/02/15 09:52:29;;;;;;;20.00;15.63;;;205.20;2252.80;;;;;;4955548;29;20024;-81
2023/02/15 09:55:00;;;;;;;26.52;17.40;;;205.30;2252.80;;;;;;4954552;29;20054;-81
2023/02/15 09:57:57;;;;;;;24.17;15.52;;;205.40;2252.80;;;;;;4957667;29;20043;-81
2023/02/15 10:00:37;;;;;;;24.63;16.15;;;205.50;2252.80;;;;;;4955024;29;20034;-80
2023/02/15 10:03:14;;;;;;;28.30;20.30;;;205.50;2252.80;;;;;;4954724;29;20032;-81
2023/02/15 10:05:58;;;;;;;34.45;25.33;;;205.60;2252.80;;;;;;4954548;29;20027;-81
2023/02/15 10:08:56;;;;;;;45.78;37.95;;;205.70;2252.80;;;;;;4953933;29;20043;-81
2023/02/15 10:11:40;;;;;;;24.17;18.30;;;230.40;2252.80;;;;;;4953370;29;20035;-81
2023/02/15 10:14:14;;;;;;;24.55;18.38;;;205.70;2252.80;;;;;;4953311;29;20058;-81
2023/02/15 10:17:11;;;;;;;38.85;26.30;;;205.70;2252.80;;;;;;4953653;29;20111;-80
2023/02/15 10:19:57;;;;;;;32.72;23.77;;;205.70;2252.80;;;;;;4954695;29;20046;-81
2023/02/15 10:23:00;;;;;;;23.42;17.20;;;205.70;2252.80;;;;;;4953516;29;20037;-80
2023/02/15 10:25:46;;;;;;;25.53;18.17;;;205.70;2252.80;;;;;;4985300;28;20098;-80
2023/02/15 10:28:23;;;;;;;20.92;16.70;;;230.40;2252.80;;;;;;4953989;29;20265;-80
2023/02/15 10:30:57;;;;;;;23.70;16.42;;;205.70;2252.80;;;;;;4954116;29;20411;-80
2023/02/15 10:33:35;;;;;;;25.95;19.38;;;230.40;2252.80;;;;;;4953824;29;20027;-81
2023/02/15 10:36:19;;;;;;;24.60;16.80;;;230.40;2252.80;;;;;;4953028;29;20067;-80
2023/02/15 10:38:50;;;;;;;30.83;22.80;;;230.50;2252.80;;;;;;4952921;29;20034;-80
2023/02/15 10:41:28;;;;;;;23.95;16.70;;;230.60;2252.80;;;;;;4953182;29;20055;-81
2023/02/15 10:44:20;;;;;;;26.77;18.27;;;230.60;2252.80;;;;;;4952751;29;20060;-81
2023/02/15 10:47:24;;;;;;;34.50;22.13;;;230.70;2252.80;;;;;;4926476;29;20065;-80
2023/02/15 10:50:14;;;;;;;;;;;230.90;2252.80;;;;;;4952173;29;20028;-80
2023/02/15 10:53:24;;;;;;;22.15;16.63;;;231.10;2252.80;;;;;;4951831;29;19907;-79
2023/02/15 10:56:12;;;;;;;30.30;22.73;;;231.00;2252.80;;;;;;4931125;29;20043;-80
2023/02/15 10:59:17;;;;;;;46.75;28.65;;;231.00;2252.80;;;;;;4990158;28;20353;-79
2023/02/15 11:02:01;;;;;;;41.30;27.75;;;230.90;2252.80;;;;;;4951355;29;20027;-80
2023/02/15 11:04:46;;;;;;;34.40;22.73;;;231.20;2252.80;;;;;;4950914;29;20035;-80
2023/02/15 11:07:17;;;;;;;20.35;15.43;;;231.30;2252.80;;;;;;4952306;29;20054;-81
2023/02/15 11:09:53;;;;;;;23.35;14.73;;;231.20;2252.80;;;;;;4952029;29;20088;-80
2023/02/15 11:12:26;;;;;;;22.17;17.20;;;231.10;2252.80;;;;;;4952778;29;20028;-81
2023/02/15 11:15:01;;;;;;;20.30;15.18;;;231.30;2252.80;;;;;;4951541;29;20036;-81
2023/02/15 11:17:38;;;;;;;27.90;18.98;;;256.10;2252.80;;;;;;4951711;29;20058;-81
2023/02/15 11:20:22;;;;;;;19.20;13.75;;;256.10;2252.80;;;;;;4952842;29;20023;-81
2023/02/15 11:22:53;;;;;;;19.33;13.70;;;256.00;2252.80;;;;;;4953669;29;20027;-81
2023/02/15 11:25:30;;;;;;;17.98;12.00;;;256.10;2252.80;;;;;;4934629;29;20040;-81
2023/02/15 11:27:56;;;;;;;19.17;13.70;;;256.10;2252.80;;;;;;4933859;29;20050;-81
2023/02/15 11:30:44;;;;;;;25.10;13.13;;;256.00;2252.80;;;;;;4941940;29;20027;-80
2023/02/15 11:33:38;;;;;;;19.17;13.35;;;256.50;2252.80;;;;;;4951969;29;20028;-82
2023/02/15 11:36:11;;;;;;;22.55;13.93;;;281.70;2278.40;;;;;;4945261;29;20044;-81
2023/02/15 11:38:43;;;;;;;22.30;16.50;;;256.50;2252.80;;;;;;4949102;29;20555;-81
2023/02/15 11:41:16;;;;;;;32.95;21.27;;;256.40;2252.80;;;;;;4946173;29;20038;-81
2023/02/15 11:43:52;;;;;;;25.15;17.63;;;256.20;2252.80;;;;;;4945177;29;20027;-80
2023/02/15 11:46:19;;;;;;;28.00;20.40;;;256.40;2252.80;;;;;;4946005;29;20095;-79
2023/02/15 11:48:45;;;;;;;32.95;22.00;;;256.70;2227.20;;;;;;4945620;29;20027;-81
2023/02/15 11:51:16;;;;;;;18.63;13.52;;;256.90;2227.20;;;;;;4947505;29;20078;-81
2023/02/15 11:53:44;;;;;;;41.42;27.33;;;256.50;2227.20;;;;;;4944274;29;20042;-81
2023/02/15 11:56:18;;;;;;;35.20;23.92;;;281.60;2252.80;;;;;;4946711;29;20078;-81
2023/02/15 11:58:47;;;;;;;44.58;30.73;;;282.20;2227.20;;;;;;4946017;29;20035;-81
2023/02/15 12:01:20;;;;;;;44.65;32.08;;;282.50;2176.00;;;;;;4947252;29;20027;-80
2023/02/15 12:03:49;;;;;;;42.72;30.40;;;307.40;2150.40;;;;;;4944267;29;20109;-78
2023/02/15 12:06:26;;;;;;;29.70;22.02;;;307.40;2278.40;;;;;;4943745;29;20114;-80
2023/02/15 12:09:05;;;;;;;29.27;25.42;;;307.70;2124.80;;;;;;4944383;29;20019;-80
2023/02/15 12:11:36;;;;;;;23.67;19.98;;;;;;;;;;4947509;29;20416;-81
2023/02/15 12:14:17;;;;;;;37.40;24.98;;;307.90;2099.20;;;;;;4944441;29;20034;-81
2023/02/15 12:16:49;;;;;;;44.30;33.17;;;332.80;2099.20;;;;;;4943356;29;20036;-80
2023/02/15 12:19:39;;;;;;;25.38;19.02;;;333.10;2099.20;;;;;;4943569;29;20046;-80
2023/02/15 12:22:06;;;;;;;30.42;19.77;;;333.20;2099.20;;;;;;4950966;29;20110;-81
2023/02/15 12:24:47;;;;;;;27.52;20.48;;;333.10;2073.60;;;;;;4949606;29;20073;-82
2023/02/15 12:27:18;;;;;;;27.40;21.00;;;333.40;2073.60;;;;;;4932240;29;20047;-82
2023/02/15 12:29:57;;;;;;;25.05;20.20;;;333.40;2048.00;;;;;;4948418;29;20034;-80
2023/02/15 12:32:27;;;;;;;23.40;18.73;;;333.70;2022.40;;;;;;4948627;29;20114;-82
2023/02/15 12:35:01;;;;;;;29.38;22.30;;;333.60;2022.40;;;;;;4945949;29;20027;-81
2023/02/15 12:37:31;;;;;;;24.83;18.65;;;358.40;1971.20;;;;;;4947908;29;20031;-80
2023/02/15 12:40:38;;;;;;;23.13;17.20;;;358.40;2022.40;;;;;;4950641;29;20023;-81
2023/02/15 12:43:08;;;;;;;17.52;12.30;;;;;;;;;;4945329;29;20148;-80
2023/02/15 12:45:38;;;;;;;25.35;17.92;;;358.70;1971.20;;;;;;4946331;29;20372;-82
2023/02/15 12:48:17;;;;;;;24.83;19.63;;;358.90;2099.20;;;;;;4967500;29;20031;-83
2023/02/15 12:50:46;;;;;;;28.27;19.67;;;359.00;1945.60;;;;;;4949065;29;20772;-83
2023/02/15 12:53:15;;;;;;;21.92;15.88;;;;;;;;;;4963466;28;20062;-82